Weather at Åre Östersund Airport

Public forecast

Using degrees Celsius for public forecast. Weather courtesy of forecast.io.

Current aviation weather report (METAR) for Åre Östersund Airport

Report is more than 6 hours old.

2022/11/14 15:20 (retrieved 2 years ago)

ESNZ 141520Z 21003KT 9999 BKN040 02/02 Q1019

Closest aviation forecast (TAF) to Åre Östersund Airport

Forecast is more than 12 hours old.

Closest forecast is Trondheim Airport, Værnes, 97.7 nm (180.9 km) W.

2023/02/22 18:36 (retrieved 1 year ago)

TAF ENVA 221700Z 2218/2318 VRB05KT 9999 -RA SCT008 BKN015 BECMG 2221/2223 26012KT TEMPO 2220/2224 RA BKN012 BECMG 2300/2302 FEW020TCU SCT030 TEMPO 2301/2313 26015G25KT 1000 SHSN VV008 BECMG 2313/2316 12008KT